sensor_id;sensor_type;location;lat;lon;timestamp;P1;durP1;ratioP1;P2;durP2;ratioP2
69240;SDS011;56352;55.750;13.198;2022-08-25T00:00:11;4.35;;;2.83;;
69240;SDS011;56352;55.750;13.198;2022-08-25T00:02:38;3.10;;;2.65;;
69240;SDS011;56352;55.750;13.198;2022-08-25T00:05:05;5.32;;;2.92;;
69240;SDS011;56352;55.750;13.198;2022-08-25T00:07:34;3.47;;;2.27;;
69240;SDS011;56352;55.750;13.198;2022-08-25T00:10:02;8.30;;;3.00;;
69240;SDS011;56352;55.750;13.198;2022-08-25T00:12:29;3.95;;;2.45;;
69240;SDS011;56352;55.750;13.198;2022-08-25T00:14:56;4.07;;;2.10;;
69240;SDS011;56352;55.750;13.198;2022-08-25T00:17:23;7.80;;;3.05;;
69240;SDS011;56352;55.750;13.198;2022-08-25T00:19:50;4.43;;;2.50;;
69240;SDS011;56352;55.750;13.198;2022-08-25T00:22:16;4.00;;;2.50;;
69240;SDS011;56352;55.750;13.198;2022-08-25T00:24:43;3.80;;;2.95;;
69240;SDS011;56352;55.750;13.198;2022-08-25T00:27:09;4.30;;;2.63;;
69240;SDS011;56352;55.750;13.198;2022-08-25T00:29:37;4.70;;;2.70;;
69240;SDS011;56352;55.750;13.198;2022-08-25T00:32:05;5.40;;;3.00;;
69240;SDS011;56352;55.750;13.198;2022-08-25T00:34:33;4.25;;;2.35;;
69240;SDS011;56352;55.750;13.198;2022-08-25T00:37:02;3.33;;;2.20;;
69240;SDS011;56352;55.750;13.198;2022-08-25T00:39:32;3.88;;;2.65;;
69240;SDS011;56352;55.750;13.198;2022-08-25T00:41:59;5.10;;;2.33;;
69240;SDS011;56352;55.750;13.198;2022-08-25T00:44:27;5.78;;;2.88;;
69240;SDS011;56352;55.750;13.198;2022-08-25T00:49:36;3.80;;;2.30;;
69240;SDS011;56352;55.750;13.198;2022-08-25T00:54:49;3.60;;;2.53;;
69240;SDS011;56352;55.750;13.198;2022-08-25T00:57:19;3.22;;;2.30;;
69240;SDS011;56352;55.750;13.198;2022-08-25T01:00:00;4.50;;;2.45;;
69240;SDS011;56352;55.750;13.198;2022-08-25T01:02:31;4.93;;;2.70;;
69240;SDS011;56352;55.750;13.198;2022-08-25T01:04:57;3.92;;;2.90;;
69240;SDS011;56352;55.750;13.198;2022-08-25T01:07:24;3.78;;;2.75;;
69240;SDS011;56352;55.750;13.198;2022-08-25T01:09:51;5.05;;;3.35;;
69240;SDS011;56352;55.750;13.198;2022-08-25T01:12:17;4.95;;;2.95;;
69240;SDS011;56352;55.750;13.198;2022-08-25T01:14:44;6.05;;;3.22;;
69240;SDS011;56352;55.750;13.198;2022-08-25T01:17:12;4.85;;;2.60;;
69240;SDS011;56352;55.750;13.198;2022-08-25T01:19:40;3.72;;;2.47;;
69240;SDS011;56352;55.750;13.198;2022-08-25T01:22:07;4.00;;;2.80;;
69240;SDS011;56352;55.750;13.198;2022-08-25T01:24:39;4.20;;;2.58;;
69240;SDS011;56352;55.750;13.198;2022-08-25T01:27:08;4.45;;;2.58;;
69240;SDS011;56352;55.750;13.198;2022-08-25T01:29:36;5.45;;;2.53;;
69240;SDS011;56352;55.750;13.198;2022-08-25T01:32:06;4.95;;;2.63;;
69240;SDS011;56352;55.750;13.198;2022-08-25T01:34:40;5.63;;;2.80;;
69240;SDS011;56352;55.750;13.198;2022-08-25T01:37:09;4.57;;;2.90;;
69240;SDS011;56352;55.750;13.198;2022-08-25T01:39:39;3.75;;;2.65;;
69240;SDS011;56352;55.750;13.198;2022-08-25T01:44:37;4.78;;;2.90;;
69240;SDS011;56352;55.750;13.198;2022-08-25T01:47:06;7.40;;;3.05;;
69240;SDS011;56352;55.750;13.198;2022-08-25T01:49:33;5.53;;;3.38;;
69240;SDS011;56352;55.750;13.198;2022-08-25T01:52:01;4.70;;;3.10;;
69240;SDS011;56352;55.750;13.198;2022-08-25T01:54:32;5.07;;;3.75;;
69240;SDS011;56352;55.750;13.198;2022-08-25T01:56:59;6.22;;;4.07;;
69240;SDS011;56352;55.750;13.198;2022-08-25T01:59:25;6.15;;;4.35;;
69240;SDS011;56352;55.750;13.198;2022-08-25T02:01:52;4.70;;;3.60;;
69240;SDS011;56352;55.750;13.198;2022-08-25T02:04:25;5.00;;;3.58;;
69240;SDS011;56352;55.750;13.198;2022-08-25T02:06:54;5.93;;;3.70;;
69240;SDS011;56352;55.750;13.198;2022-08-25T02:09:21;5.97;;;3.85;;
69240;SDS011;56352;55.750;13.198;2022-08-25T02:11:48;4.85;;;3.22;;
69240;SDS011;56352;55.750;13.198;2022-08-25T02:14:15;5.03;;;3.50;;
69240;SDS011;56352;55.750;13.198;2022-08-25T02:16:44;6.60;;;3.72;;
69240;SDS011;56352;55.750;13.198;2022-08-25T02:19:14;3.70;;;3.40;;
69240;SDS011;56352;55.750;13.198;2022-08-25T02:21:41;5.90;;;3.70;;
69240;SDS011;56352;55.750;13.198;2022-08-25T02:24:08;3.70;;;3.38;;
69240;SDS011;56352;55.750;13.198;2022-08-25T02:26:35;3.95;;;3.20;;
69240;SDS011;56352;55.750;13.198;2022-08-25T02:29:02;5.75;;;3.47;;
69240;SDS011;56352;55.750;13.198;2022-08-25T02:31:29;3.65;;;2.90;;
69240;SDS011;56352;55.750;13.198;2022-08-25T02:33:56;3.47;;;3.15;;
69240;SDS011;56352;55.750;13.198;2022-08-25T02:36:23;3.80;;;3.05;;
69240;SDS011;56352;55.750;13.198;2022-08-25T02:38:49;4.68;;;3.38;;
69240;SDS011;56352;55.750;13.198;2022-08-25T02:41:17;6.25;;;3.97;;
69240;SDS011;56352;55.750;13.198;2022-08-25T02:43:46;4.35;;;3.63;;
69240;SDS011;56352;55.750;13.198;2022-08-25T02:46:14;5.82;;;4.28;;
69240;SDS011;56352;55.750;13.198;2022-08-25T02:48:42;4.63;;;4.07;;
69240;SDS011;56352;55.750;13.198;2022-08-25T02:51:09;4.30;;;3.70;;
69240;SDS011;56352;55.750;13.198;2022-08-25T02:53:37;5.35;;;4.00;;
69240;SDS011;56352;55.750;13.198;2022-08-25T02:56:05;6.80;;;4.40;;
69240;SDS011;56352;55.750;13.198;2022-08-25T02:58:34;5.32;;;4.57;;
69240;SDS011;56352;55.750;13.198;2022-08-25T03:01:01;5.57;;;4.10;;
69240;SDS011;56352;55.750;13.198;2022-08-25T03:03:28;4.20;;;3.80;;
69240;SDS011;56352;55.750;13.198;2022-08-25T03:05:55;4.50;;;4.10;;
69240;SDS011;56352;55.750;13.198;2022-08-25T03:08:22;6.43;;;4.10;;
69240;SDS011;56352;55.750;13.198;2022-08-25T03:10:49;4.30;;;3.83;;
69240;SDS011;56352;55.750;13.198;2022-08-25T03:13:17;4.25;;;3.40;;
69240;SDS011;56352;55.750;13.198;2022-08-25T03:15:44;3.25;;;2.95;;
69240;SDS011;56352;55.750;13.198;2022-08-25T03:18:14;4.13;;;3.40;;
69240;SDS011;56352;55.750;13.198;2022-08-25T03:20:42;4.20;;;3.65;;
69240;SDS011;56352;55.750;13.198;2022-08-25T03:23:09;3.58;;;3.17;;
69240;SDS011;56352;55.750;13.198;2022-08-25T03:25:38;3.88;;;3.42;;
69240;SDS011;56352;55.750;13.198;2022-08-25T03:28:27;3.33;;;3.03;;
69240;SDS011;56352;55.750;13.198;2022-08-25T03:31:01;4.43;;;3.10;;
69240;SDS011;56352;55.750;13.198;2022-08-25T03:33:28;3.55;;;3.22;;
69240;SDS011;56352;55.750;13.198;2022-08-25T03:35:56;3.45;;;2.78;;
69240;SDS011;56352;55.750;13.198;2022-08-25T03:38:23;3.75;;;2.95;;
69240;SDS011;56352;55.750;13.198;2022-08-25T03:40:50;3.50;;;2.70;;
69240;SDS011;56352;55.750;13.198;2022-08-25T03:43:17;2.60;;;2.38;;
69240;SDS011;56352;55.750;13.198;2022-08-25T03:45:44;3.75;;;2.70;;
69240;SDS011;56352;55.750;13.198;2022-08-25T03:48:11;4.03;;;2.72;;
69240;SDS011;56352;55.750;13.198;2022-08-25T03:50:43;2.92;;;2.63;;
69240;SDS011;56352;55.750;13.198;2022-08-25T03:53:17;2.90;;;2.63;;
69240;SDS011;56352;55.750;13.198;2022-08-25T03:55:44;2.63;;;2.33;;
69240;SDS011;56352;55.750;13.198;2022-08-25T03:58:10;3.60;;;2.53;;
69240;SDS011;56352;55.750;13.198;2022-08-25T04:00:37;3.25;;;2.42;;
69240;SDS011;56352;55.750;13.198;2022-08-25T04:03:04;4.40;;;2.10;;
69240;SDS011;56352;55.750;13.198;2022-08-25T04:05:32;2.83;;;2.38;;
69240;SDS011;56352;55.750;13.198;2022-08-25T04:07:59;2.95;;;2.65;;
69240;SDS011;56352;55.750;13.198;2022-08-25T04:10:27;3.22;;;2.50;;
69240;SDS011;56352;55.750;13.198;2022-08-25T04:12:55;3.42;;;2.67;;
69240;SDS011;56352;55.750;13.198;2022-08-25T04:15:22;4.18;;;2.67;;
69240;SDS011;56352;55.750;13.198;2022-08-25T04:17:54;2.42;;;1.95;;
69240;SDS011;56352;55.750;13.198;2022-08-25T04:20:20;4.63;;;2.88;;
69240;SDS011;56352;55.750;13.198;2022-08-25T04:22:47;2.38;;;2.17;;
69240;SDS011;56352;55.750;13.198;2022-08-25T04:25:13;4.07;;;2.50;;
69240;SDS011;56352;55.750;13.198;2022-08-25T04:27:40;2.95;;;2.45;;
69240;SDS011;56352;55.750;13.198;2022-08-25T04:30:07;2.60;;;2.40;;
69240;SDS011;56352;55.750;13.198;2022-08-25T04:32:34;2.53;;;2.10;;
69240;SDS011;56352;55.750;13.198;2022-08-25T04:35:02;4.95;;;2.78;;
69240;SDS011;56352;55.750;13.198;2022-08-25T04:37:30;3.00;;;2.40;;
69240;SDS011;56352;55.750;13.198;2022-08-25T04:39:58;6.25;;;2.42;;
69240;SDS011;56352;55.750;13.198;2022-08-25T04:42:25;3.80;;;2.30;;
69240;SDS011;56352;55.750;13.198;2022-08-25T04:44:52;2.83;;;2.33;;
69240;SDS011;56352;55.750;13.198;2022-08-25T04:47:19;2.80;;;2.35;;
69240;SDS011;56352;55.750;13.198;2022-08-25T04:49:46;4.28;;;2.50;;
69240;SDS011;56352;55.750;13.198;2022-08-25T04:52:13;3.15;;;2.40;;
69240;SDS011;56352;55.750;13.198;2022-08-25T04:54:40;3.90;;;2.42;;
69240;SDS011;56352;55.750;13.198;2022-08-25T04:57:07;4.40;;;2.60;;
69240;SDS011;56352;55.750;13.198;2022-08-25T04:59:33;4.05;;;2.80;;
69240;SDS011;56352;55.750;13.198;2022-08-25T05:02:00;4.28;;;2.25;;
69240;SDS011;56352;55.750;13.198;2022-08-25T05:04:28;2.80;;;2.50;;
69240;SDS011;56352;55.750;13.198;2022-08-25T05:06:56;2.42;;;2.17;;
69240;SDS011;56352;55.750;13.198;2022-08-25T05:09:23;5.10;;;3.15;;
69240;SDS011;56352;55.750;13.198;2022-08-25T05:11:51;3.55;;;2.53;;
69240;SDS011;56352;55.750;13.198;2022-08-25T05:14:19;4.53;;;2.70;;
69240;SDS011;56352;55.750;13.198;2022-08-25T05:16:51;4.47;;;3.20;;
69240;SDS011;56352;55.750;13.198;2022-08-25T05:19:18;5.65;;;2.88;;
69240;SDS011;56352;55.750;13.198;2022-08-25T05:21:45;3.72;;;2.70;;
69240;SDS011;56352;55.750;13.198;2022-08-25T05:24:12;4.80;;;3.15;;
69240;SDS011;56352;55.750;13.198;2022-08-25T05:26:38;3.45;;;3.03;;
69240;SDS011;56352;55.750;13.198;2022-08-25T05:29:06;5.68;;;3.08;;
69240;SDS011;56352;55.750;13.198;2022-08-25T05:31:33;3.38;;;2.92;;
69240;SDS011;56352;55.750;13.198;2022-08-25T05:34:08;3.92;;;3.55;;
69240;SDS011;56352;55.750;13.198;2022-08-25T05:36:35;5.45;;;4.25;;
69240;SDS011;56352;55.750;13.198;2022-08-25T05:39:02;7.82;;;4.90;;
69240;SDS011;56352;55.750;13.198;2022-08-25T05:41:29;8.35;;;5.35;;
69240;SDS011;56352;55.750;13.198;2022-08-25T05:43:56;9.88;;;5.95;;
69240;SDS011;56352;55.750;13.198;2022-08-25T05:46:23;10.85;;;6.30;;
69240;SDS011;56352;55.750;13.198;2022-08-25T05:48:50;11.02;;;7.18;;
69240;SDS011;56352;55.750;13.198;2022-08-25T05:51:17;12.70;;;6.63;;
69240;SDS011;56352;55.750;13.198;2022-08-25T05:53:46;12.45;;;7.45;;
69240;SDS011;56352;55.750;13.198;2022-08-25T05:58:41;12.70;;;6.93;;
69240;SDS011;56352;55.750;13.198;2022-08-25T06:01:09;11.88;;;6.60;;
69240;SDS011;56352;55.750;13.198;2022-08-25T06:04:01;13.73;;;6.88;;
69240;SDS011;56352;55.750;13.198;2022-08-25T06:06:28;10.60;;;7.53;;
69240;SDS011;56352;55.750;13.198;2022-08-25T06:08:55;13.30;;;8.10;;
69240;SDS011;56352;55.750;13.198;2022-08-25T06:11:21;12.90;;;7.80;;
69240;SDS011;56352;55.750;13.198;2022-08-25T06:13:48;11.80;;;7.30;;
69240;SDS011;56352;55.750;13.198;2022-08-25T06:16:15;12.80;;;7.80;;
69240;SDS011;56352;55.750;13.198;2022-08-25T06:18:42;11.95;;;7.63;;
69240;SDS011;56352;55.750;13.198;2022-08-25T06:21:09;10.07;;;7.72;;
69240;SDS011;56352;55.750;13.198;2022-08-25T06:23:38;9.98;;;7.20;;
69240;SDS011;56352;55.750;13.198;2022-08-25T06:26:06;10.10;;;6.43;;
69240;SDS011;56352;55.750;13.198;2022-08-25T06:28:39;12.18;;;6.45;;
69240;SDS011;56352;55.750;13.198;2022-08-25T06:31:06;10.20;;;7.07;;
69240;SDS011;56352;55.750;13.198;2022-08-25T06:33:33;10.07;;;6.28;;
69240;SDS011;56352;55.750;13.198;2022-08-25T06:35:59;7.05;;;5.88;;
69240;SDS011;56352;55.750;13.198;2022-08-25T06:38:26;9.70;;;5.68;;
69240;SDS011;56352;55.750;13.198;2022-08-25T06:40:53;6.93;;;5.45;;
69240;SDS011;56352;55.750;13.198;2022-08-25T06:43:23;8.18;;;5.45;;
69240;SDS011;56352;55.750;13.198;2022-08-25T06:45:50;8.73;;;5.28;;
69240;SDS011;56352;55.750;13.198;2022-08-25T06:48:17;5.68;;;5.13;;
69240;SDS011;56352;55.750;13.198;2022-08-25T06:50:43;5.63;;;4.78;;
69240;SDS011;56352;55.750;13.198;2022-08-25T06:53:11;7.43;;;4.78;;
69240;SDS011;56352;55.750;13.198;2022-08-25T06:55:38;7.65;;;4.72;;
69240;SDS011;56352;55.750;13.198;2022-08-25T06:58:05;6.10;;;4.38;;
69240;SDS011;56352;55.750;13.198;2022-08-25T07:00:36;4.80;;;3.80;;
69240;SDS011;56352;55.750;13.198;2022-08-25T07:03:03;8.95;;;4.10;;
69240;SDS011;56352;55.750;13.198;2022-08-25T07:05:32;5.18;;;4.40;;
69240;SDS011;56352;55.750;13.198;2022-08-25T07:08:08;7.38;;;4.47;;
69240;SDS011;56352;55.750;13.198;2022-08-25T07:10:37;5.40;;;4.25;;
69240;SDS011;56352;55.750;13.198;2022-08-25T07:13:04;5.90;;;4.35;;
69240;SDS011;56352;55.750;13.198;2022-08-25T07:15:30;5.57;;;4.25;;
69240;SDS011;56352;55.750;13.198;2022-08-25T07:17:57;6.35;;;3.92;;
69240;SDS011;56352;55.750;13.198;2022-08-25T07:20:24;5.50;;;3.72;;
69240;SDS011;56352;55.750;13.198;2022-08-25T07:22:56;4.55;;;3.80;;
69240;SDS011;56352;55.750;13.198;2022-08-25T07:25:23;4.70;;;3.60;;
69240;SDS011;56352;55.750;13.198;2022-08-25T07:27:50;5.95;;;3.58;;
69240;SDS011;56352;55.750;13.198;2022-08-25T07:30:22;4.18;;;3.20;;
69240;SDS011;56352;55.750;13.198;2022-08-25T07:32:49;5.70;;;3.03;;
69240;SDS011;56352;55.750;13.198;2022-08-25T07:35:35;3.95;;;3.03;;
69240;SDS011;56352;55.750;13.198;2022-08-25T07:38:03;5.32;;;3.08;;
69240;SDS011;56352;55.750;13.198;2022-08-25T07:40:35;4.97;;;2.78;;
69240;SDS011;56352;55.750;13.198;2022-08-25T07:43:08;3.10;;;2.80;;
69240;SDS011;56352;55.750;13.198;2022-08-25T07:45:36;3.75;;;2.50;;
69240;SDS011;56352;55.750;13.198;2022-08-25T07:48:15;2.83;;;2.55;;
69240;SDS011;56352;55.750;13.198;2022-08-25T07:50:45;4.05;;;2.55;;
69240;SDS011;56352;55.750;13.198;2022-08-25T07:53:13;3.45;;;2.40;;
69240;SDS011;56352;55.750;13.198;2022-08-25T07:55:41;3.30;;;2.35;;
69240;SDS011;56352;55.750;13.198;2022-08-25T07:58:10;2.33;;;2.08;;
69240;SDS011;56352;55.750;13.198;2022-08-25T08:00:37;2.80;;;2.28;;
69240;SDS011;56352;55.750;13.198;2022-08-25T08:03:08;2.42;;;2.22;;
69240;SDS011;56352;55.750;13.198;2022-08-25T08:05:49;3.03;;;2.20;;
69240;SDS011;56352;55.750;13.198;2022-08-25T08:08:15;2.05;;;1.80;;
69240;SDS011;56352;55.750;13.198;2022-08-25T08:10:44;2.15;;;1.95;;
69240;SDS011;56352;55.750;13.198;2022-08-25T08:13:30;2.05;;;1.80;;
69240;SDS011;56352;55.750;13.198;2022-08-25T08:16:07;2.10;;;1.73;;
69240;SDS011;56352;55.750;13.198;2022-08-25T08:18:36;2.10;;;1.90;;
69240;SDS011;56352;55.750;13.198;2022-08-25T08:21:03;2.78;;;1.70;;
69240;SDS011;56352;55.750;13.198;2022-08-25T08:23:30;5.75;;;2.42;;
69240;SDS011;56352;55.750;13.198;2022-08-25T08:25:57;2.83;;;1.75;;
69240;SDS011;56352;55.750;13.198;2022-08-25T08:28:24;1.92;;;1.70;;
69240;SDS011;56352;55.750;13.198;2022-08-25T08:30:53;2.17;;;1.95;;
69240;SDS011;56352;55.750;13.198;2022-08-25T08:33:21;1.93;;;1.83;;
69240;SDS011;56352;55.750;13.198;2022-08-25T08:38:30;3.67;;;1.88;;
69240;SDS011;56352;55.750;13.198;2022-08-25T08:44:04;3.25;;;1.95;;
69240;SDS011;56352;55.750;13.198;2022-08-25T08:46:41;2.97;;;2.08;;
69240;SDS011;56352;55.750;13.198;2022-08-25T08:49:37;3.83;;;2.17;;
69240;SDS011;56352;55.750;13.198;2022-08-25T08:52:08;5.82;;;2.40;;
69240;SDS011;56352;55.750;13.198;2022-08-25T08:54:36;2.22;;;2.03;;
69240;SDS011;56352;55.750;13.198;2022-08-25T08:57:17;2.80;;;2.47;;
69240;SDS011;56352;55.750;13.198;2022-08-25T08:59:49;2.30;;;2.00;;
69240;SDS011;56352;55.750;13.198;2022-08-25T09:02:34;2.70;;;1.98;;
69240;SDS011;56352;55.750;13.198;2022-08-25T09:05:17;4.20;;;1.67;;
69240;SDS011;56352;55.750;13.198;2022-08-25T09:07:57;1.65;;;1.38;;
69240;SDS011;56352;55.750;13.198;2022-08-25T09:10:38;2.70;;;1.50;;
69240;SDS011;56352;55.750;13.198;2022-08-25T09:15:54;3.42;;;1.42;;
69240;SDS011;56352;55.750;13.198;2022-08-25T09:25:39;5.57;;;1.30;;
69240;SDS011;56352;55.750;13.198;2022-08-25T09:28:21;2.55;;;1.38;;
69240;SDS011;56352;55.750;13.198;2022-08-25T09:33:41;2.83;;;1.30;;
69240;SDS011;56352;55.750;13.198;2022-08-25T09:36:09;2.50;;;1.30;;
69240;SDS011;56352;55.750;13.198;2022-08-25T09:38:36;2.47;;;1.58;;
69240;SDS011;56352;55.750;13.198;2022-08-25T09:41:03;1.88;;;1.45;;
69240;SDS011;56352;55.750;13.198;2022-08-25T09:43:32;1.73;;;1.30;;
69240;SDS011;56352;55.750;13.198;2022-08-25T09:48:41;3.33;;;1.30;;
69240;SDS011;56352;55.750;13.198;2022-08-25T09:53:56;3.30;;;1.20;;
69240;SDS011;56352;55.750;13.198;2022-08-25T09:56:25;3.10;;;1.20;;
69240;SDS011;56352;55.750;13.198;2022-08-25T09:58:54;2.55;;;1.25;;
69240;SDS011;56352;55.750;13.198;2022-08-25T10:01:28;3.45;;;1.38;;
69240;SDS011;56352;55.750;13.198;2022-08-25T10:04:04;1.70;;;1.23;;
69240;SDS011;56352;55.750;13.198;2022-08-25T10:06:44;1.88;;;1.50;;
69240;SDS011;56352;55.750;13.198;2022-08-25T10:09:26;3.00;;;1.17;;
69240;SDS011;56352;55.750;13.198;2022-08-25T10:11:57;3.45;;;1.02;;
69240;SDS011;56352;55.750;13.198;2022-08-25T10:17:16;1.65;;;0.90;;
69240;SDS011;56352;55.750;13.198;2022-08-25T10:20:16;1.42;;;1.00;;
69240;SDS011;56352;55.750;13.198;2022-08-25T10:22:46;3.15;;;1.10;;
69240;SDS011;56352;55.750;13.198;2022-08-25T10:25:19;1.55;;;1.13;;
69240;SDS011;56352;55.750;13.198;2022-08-25T10:36:08;1.95;;;1.00;;
69240;SDS011;56352;55.750;13.198;2022-08-25T10:38:48;5.25;;;4.85;;
69240;SDS011;56352;55.750;13.198;2022-08-25T10:44:21;4.28;;;1.70;;
69240;SDS011;56352;55.750;13.198;2022-08-25T10:53:17;3.58;;;1.80;;
69240;SDS011;56352;55.750;13.198;2022-08-25T11:07:25;2.60;;;1.20;;
69240;SDS011;56352;55.750;13.198;2022-08-25T11:10:02;3.13;;;1.33;;
69240;SDS011;56352;55.750;13.198;2022-08-25T11:12:40;2.92;;;1.35;;
69240;SDS011;56352;55.750;13.198;2022-08-25T11:15:11;4.43;;;1.70;;
69240;SDS011;56352;55.750;13.198;2022-08-25T11:20:18;2.78;;;1.40;;
69240;SDS011;56352;55.750;13.198;2022-08-25T11:25:32;2.80;;;1.30;;
69240;SDS011;56352;55.750;13.198;2022-08-25T11:28:09;1.80;;;1.25;;
69240;SDS011;56352;55.750;13.198;2022-08-25T11:30:41;2.38;;;1.17;;
69240;SDS011;56352;55.750;13.198;2022-08-25T11:33:15;4.15;;;1.50;;
69240;SDS011;56352;55.750;13.198;2022-08-25T11:36:01;1.55;;;1.13;;
69240;SDS011;56352;55.750;13.198;2022-08-25T11:41:30;2.22;;;1.40;;
69240;SDS011;56352;55.750;13.198;2022-08-25T11:49:38;3.42;;;1.20;;
69240;SDS011;56352;55.750;13.198;2022-08-25T11:55:10;1.50;;;1.10;;
69240;SDS011;56352;55.750;13.198;2022-08-25T11:57:41;3.53;;;1.27;;
69240;SDS011;56352;55.750;13.198;2022-08-25T12:02:46;1.63;;;1.13;;
69240;SDS011;56352;55.750;13.198;2022-08-25T12:10:59;1.83;;;1.00;;
69240;SDS011;56352;55.750;13.198;2022-08-25T12:16:05;1.95;;;1.10;;
69240;SDS011;56352;55.750;13.198;2022-08-25T12:18:36;3.72;;;1.40;;
69240;SDS011;56352;55.750;13.198;2022-08-25T12:21:12;1.90;;;1.10;;
69240;SDS011;56352;55.750;13.198;2022-08-25T12:23:41;2.45;;;1.02;;
69240;SDS011;56352;55.750;13.198;2022-08-25T12:29:31;3.88;;;1.25;;
69240;SDS011;56352;55.750;13.198;2022-08-25T12:34:52;1.90;;;1.00;;
69240;SDS011;56352;55.750;13.198;2022-08-25T12:37:34;1.73;;;1.02;;
69240;SDS011;56352;55.750;13.198;2022-08-25T12:41:02;2.83;;;1.20;;
69240;SDS011;56352;55.750;13.198;2022-08-25T12:45:50;1.52;;;0.90;;
69240;SDS011;56352;55.750;13.198;2022-08-25T12:50:58;3.60;;;1.00;;
69240;SDS011;56352;55.750;13.198;2022-08-25T12:53:30;1.35;;;1.00;;
69240;SDS011;56352;55.750;13.198;2022-08-25T12:56:04;2.67;;;1.20;;
69240;SDS011;56352;55.750;13.198;2022-08-25T13:07:15;1.67;;;1.10;;
69240;SDS011;56352;55.750;13.198;2022-08-25T13:20:54;1.75;;;1.13;;
69240;SDS011;56352;55.750;13.198;2022-08-25T13:23:53;6.95;;;1.17;;
69240;SDS011;56352;55.750;13.198;2022-08-25T13:26:32;2.28;;;1.10;;
69240;SDS011;56352;55.750;13.198;2022-08-25T13:29:11;2.03;;;1.20;;
69240;SDS011;56352;55.750;13.198;2022-08-25T13:31:50;1.50;;;1.20;;
69240;SDS011;56352;55.750;13.198;2022-08-25T13:34:20;1.60;;;1.20;;
69240;SDS011;56352;55.750;13.198;2022-08-25T13:37:07;1.10;;;0.82;;
69240;SDS011;56352;55.750;13.198;2022-08-25T13:42:39;1.50;;;0.90;;
69240;SDS011;56352;55.750;13.198;2022-08-25T13:45:10;0.85;;;0.82;;
69240;SDS011;56352;55.750;13.198;2022-08-25T13:47:40;1.63;;;0.82;;
69240;SDS011;56352;55.750;13.198;2022-08-25T13:52:44;2.08;;;1.20;;
69240;SDS011;56352;55.750;13.198;2022-08-25T13:55:18;2.03;;;1.30;;
69240;SDS011;56352;55.750;13.198;2022-08-25T13:57:53;2.67;;;1.02;;
69240;SDS011;56352;55.750;13.198;2022-08-25T14:00:43;4.13;;;1.10;;
69240;SDS011;56352;55.750;13.198;2022-08-25T14:03:31;2.08;;;1.20;;
69240;SDS011;56352;55.750;13.198;2022-08-25T14:11:27;2.17;;;1.08;;
69240;SDS011;56352;55.750;13.198;2022-08-25T14:14:37;3.03;;;1.05;;
69240;SDS011;56352;55.750;13.198;2022-08-25T14:17:06;1.63;;;1.20;;
69240;SDS011;56352;55.750;13.198;2022-08-25T14:19:54;1.85;;;1.10;;
69240;SDS011;56352;55.750;13.198;2022-08-25T14:22:21;1.77;;;1.00;;
69240;SDS011;56352;55.750;13.198;2022-08-25T14:24:50;3.22;;;1.00;;
69240;SDS011;56352;55.750;13.198;2022-08-25T14:29:45;1.60;;;1.10;;
69240;SDS011;56352;55.750;13.198;2022-08-25T14:32:17;2.95;;;1.23;;
69240;SDS011;56352;55.750;13.198;2022-08-25T14:34:44;2.17;;;1.05;;
69240;SDS011;56352;55.750;13.198;2022-08-25T14:37:12;2.30;;;1.00;;
69240;SDS011;56352;55.750;13.198;2022-08-25T14:39:42;4.07;;;1.10;;
69240;SDS011;56352;55.750;13.198;2022-08-25T14:42:10;3.85;;;1.20;;
69240;SDS011;56352;55.750;13.198;2022-08-25T14:44:37;3.07;;;1.10;;
69240;SDS011;56352;55.750;13.198;2022-08-25T14:47:04;2.47;;;1.05;;
69240;SDS011;56352;55.750;13.198;2022-08-25T14:49:33;2.35;;;1.10;;
69240;SDS011;56352;55.750;13.198;2022-08-25T14:52:07;2.83;;;1.00;;
69240;SDS011;56352;55.750;13.198;2022-08-25T14:54:38;2.03;;;0.95;;
69240;SDS011;56352;55.750;13.198;2022-08-25T14:57:05;3.00;;;1.05;;
69240;SDS011;56352;55.750;13.198;2022-08-25T14:59:34;3.78;;;1.27;;
69240;SDS011;56352;55.750;13.198;2022-08-25T15:02:00;2.80;;;1.30;;
69240;SDS011;56352;55.750;13.198;2022-08-25T15:04:27;3.50;;;1.45;;
69240;SDS011;56352;55.750;13.198;2022-08-25T15:06:57;3.75;;;1.48;;
69240;SDS011;56352;55.750;13.198;2022-08-25T15:09:25;3.25;;;1.10;;
69240;SDS011;56352;55.750;13.198;2022-08-25T15:11:58;3.72;;;1.25;;
69240;SDS011;56352;55.750;13.198;2022-08-25T15:14:25;4.88;;;1.38;;
69240;SDS011;56352;55.750;13.198;2022-08-25T15:16:57;4.10;;;1.10;;
69240;SDS011;56352;55.750;13.198;2022-08-25T15:19:25;3.38;;;1.42;;
69240;SDS011;56352;55.750;13.198;2022-08-25T15:21:52;2.95;;;1.20;;
69240;SDS011;56352;55.750;13.198;2022-08-25T15:24:23;2.38;;;1.10;;
69240;SDS011;56352;55.750;13.198;2022-08-25T15:26:52;2.72;;;1.23;;
69240;SDS011;56352;55.750;13.198;2022-08-25T15:29:23;2.58;;;1.05;;
69240;SDS011;56352;55.750;13.198;2022-08-25T15:31:51;2.17;;;1.15;;
69240;SDS011;56352;55.750;13.198;2022-08-25T15:34:18;1.45;;;1.10;;
69240;SDS011;56352;55.750;13.198;2022-08-25T15:36:45;2.28;;;1.00;;
69240;SDS011;56352;55.750;13.198;2022-08-25T15:39:12;2.05;;;1.20;;
69240;SDS011;56352;55.750;13.198;2022-08-25T15:41:39;2.75;;;1.15;;
69240;SDS011;56352;55.750;13.198;2022-08-25T15:44:08;3.55;;;1.40;;
69240;SDS011;56352;55.750;13.198;2022-08-25T15:46:37;2.05;;;1.27;;
69240;SDS011;56352;55.750;13.198;2022-08-25T15:49:05;2.37;;;1.20;;
69240;SDS011;56352;55.750;13.198;2022-08-25T15:51:33;1.63;;;1.15;;
69240;SDS011;56352;55.750;13.198;2022-08-25T15:53:59;4.60;;;1.45;;
69240;SDS011;56352;55.750;13.198;2022-08-25T15:56:26;4.00;;;1.42;;
69240;SDS011;56352;55.750;13.198;2022-08-25T15:58:53;4.63;;;1.50;;
69240;SDS011;56352;55.750;13.198;2022-08-25T16:01:25;2.20;;;1.38;;
69240;SDS011;56352;55.750;13.198;2022-08-25T16:03:55;2.78;;;1.38;;
69240;SDS011;56352;55.750;13.198;2022-08-25T16:06:23;3.50;;;1.23;;
69240;SDS011;56352;55.750;13.198;2022-08-25T16:11:20;1.88;;;1.15;;
69240;SDS011;56352;55.750;13.198;2022-08-25T16:13:48;2.70;;;1.23;;
69240;SDS011;56352;55.750;13.198;2022-08-25T16:16:16;2.70;;;1.02;;
69240;SDS011;56352;55.750;13.198;2022-08-25T16:18:43;1.52;;;0.77;;
69240;SDS011;56352;55.750;13.198;2022-08-25T16:21:11;3.05;;;1.00;;
69240;SDS011;56352;55.750;13.198;2022-08-25T16:23:40;1.17;;;0.90;;
69240;SDS011;56352;55.750;13.198;2022-08-25T16:26:08;2.97;;;0.93;;
69240;SDS011;56352;55.750;13.198;2022-08-25T16:28:38;2.63;;;1.00;;
69240;SDS011;56352;55.750;13.198;2022-08-25T16:31:09;2.63;;;0.80;;
69240;SDS011;56352;55.750;13.198;2022-08-25T16:36:05;3.38;;;0.77;;
69240;SDS011;56352;55.750;13.198;2022-08-25T16:38:35;2.38;;;0.93;;
69240;SDS011;56352;55.750;13.198;2022-08-25T16:41:08;1.77;;;1.03;;
69240;SDS011;56352;55.750;13.198;2022-08-25T16:43:37;2.05;;;0.77;;
69240;SDS011;56352;55.750;13.198;2022-08-25T16:46:05;1.20;;;0.70;;
69240;SDS011;56352;55.750;13.198;2022-08-25T16:48:33;1.15;;;0.82;;
69240;SDS011;56352;55.750;13.198;2022-08-25T16:51:13;4.38;;;1.30;;
69240;SDS011;56352;55.750;13.198;2022-08-25T16:53:44;3.03;;;1.10;;
69240;SDS011;56352;55.750;13.198;2022-08-25T16:56:31;1.58;;;0.75;;
69240;SDS011;56352;55.750;13.198;2022-08-25T16:59:02;4.22;;;0.85;;
69240;SDS011;56352;55.750;13.198;2022-08-25T17:01:31;1.25;;;0.80;;
69240;SDS011;56352;55.750;13.198;2022-08-25T17:04:00;1.90;;;0.85;;
69240;SDS011;56352;55.750;13.198;2022-08-25T17:06:28;3.17;;;0.98;;
69240;SDS011;56352;55.750;13.198;2022-08-25T17:08:58;3.38;;;1.15;;
69240;SDS011;56352;55.750;13.198;2022-08-25T17:11:26;3.63;;;1.00;;
69240;SDS011;56352;55.750;13.198;2022-08-25T17:16:23;2.38;;;1.10;;